createdAt,value
2017-05-08T00:00:21.767Z,1004.18
2017-05-08T00:01:02.237Z,1004.18
2017-05-08T00:01:42.685Z,1004.18
2017-05-08T00:02:23.148Z,1004.17
2017-05-08T00:03:03.596Z,1004.16
2017-05-08T00:03:44.057Z,1004.16
2017-05-08T00:04:24.554Z,1004.18
2017-05-08T00:05:05.039Z,1004.14
2017-05-08T00:05:45.449Z,1004.16
2017-05-08T00:08:13.369Z,1004.17
2017-05-08T00:08:53.830Z,1004.15
2017-05-08T00:09:34.323Z,1004.14
2017-05-08T00:11:52.138Z,1004.16
2017-05-08T00:12:32.610Z,1004.14
2017-05-08T00:13:13.103Z,1004.2
2017-05-08T00:13:53.561Z,1004.16
2017-05-08T00:14:34.080Z,1004.13
2017-05-08T00:15:14.578Z,1004.15
2017-05-08T00:15:55.044Z,1004.13
2017-05-08T00:16:35.508Z,1004.16
2017-05-08T00:17:15.952Z,1004.15
2017-05-08T00:17:56.398Z,1004.13
2017-05-08T00:18:36.840Z,1004.13
2017-05-08T00:20:29.438Z,1004.15
2017-05-08T00:21:09.994Z,1004.12
2017-05-08T00:21:51.464Z,1004.12
2017-05-08T00:22:31.947Z,1004.13
2017-05-08T00:23:12.454Z,1004.13
2017-05-08T00:23:52.957Z,1004.11
2017-05-08T00:24:33.421Z,1004.17
2017-05-08T00:25:13.855Z,1004.16
2017-05-08T00:25:54.320Z,1004.16
2017-05-08T00:26:34.772Z,1004.11
2017-05-08T00:27:15.220Z,1004.15
2017-05-08T00:27:55.677Z,1004.12
2017-05-08T00:28:36.159Z,1004.11
2017-05-08T00:29:16.606Z,1004.13
2017-05-08T00:29:57.036Z,1004.15
2017-05-08T00:30:37.458Z,1004.15
2017-05-08T00:31:17.936Z,1004.14
2017-05-08T00:31:58.361Z,1004.12
2017-05-08T00:32:38.812Z,1004.1
2017-05-08T00:33:19.222Z,1004.08
2017-05-08T00:33:59.664Z,1004.1
2017-05-08T00:34:40.082Z,1004.06
2017-05-08T00:35:20.562Z,1004.09
2017-05-08T00:36:01.130Z,1004.1
2017-05-08T00:36:41.594Z,1004.09
2017-05-08T00:37:22.053Z,1004.06
2017-05-08T00:38:02.514Z,1004.05
2017-05-08T00:38:42.932Z,1004.08
2017-05-08T00:39:23.395Z,1004.04
2017-05-08T00:40:03.847Z,1004.06
2017-05-08T00:40:44.284Z,1004.09
2017-05-08T00:41:24.738Z,1004.08
2017-05-08T00:42:05.216Z,1004.09
2017-05-08T00:42:45.832Z,1004.12
2017-05-08T00:43:26.249Z,1004.09
2017-05-08T00:44:06.671Z,1004.11
2017-05-08T00:44:47.125Z,1004.08
2017-05-08T00:45:27.568Z,1004.09
2017-05-08T00:46:08.020Z,1004.1
2017-05-08T00:46:48.468Z,1004.08
2017-05-08T00:47:28.863Z,1004.07
2017-05-08T00:48:09.320Z,1004.07
2017-05-08T00:48:49.793Z,1004.08
2017-05-08T00:49:30.274Z,1004.08
2017-05-08T00:50:10.777Z,1004.11
2017-05-08T00:50:51.244Z,1004.09
2017-05-08T00:51:31.692Z,1004.07
2017-05-08T00:52:12.145Z,1004.07
2017-05-08T00:52:52.586Z,1004.08
2017-05-08T00:53:33.063Z,1004.06
2017-05-08T00:54:14.132Z,1004.04
2017-05-08T00:54:54.579Z,1004.05
2017-05-08T00:55:34.997Z,1004.03
2017-05-08T00:56:15.445Z,1004.05
2017-05-08T00:58:33.226Z,1004.06
2017-05-08T00:59:13.740Z,1004.05
2017-05-08T00:59:54.210Z,1004.02
2017-05-08T01:00:34.760Z,1004.04
2017-05-08T01:01:15.227Z,1004.07
2017-05-08T01:01:55.683Z,1004.05
2017-05-08T01:04:13.511Z,1004.06
2017-05-08T01:04:54.011Z,1004.05
2017-05-08T01:05:34.469Z,1004.06
2017-05-08T01:06:15.580Z,1004.07
2017-05-08T01:06:56.054Z,1004.07
2017-05-08T01:07:36.553Z,1004.03
2017-05-08T01:08:17.013Z,1004.07
2017-05-08T01:08:57.488Z,1004.09
2017-05-08T01:09:37.978Z,1004.06
2017-05-08T01:10:18.478Z,1004.06
2017-05-08T01:10:58.969Z,1004.09
2017-05-08T01:11:39.448Z,1004.05
2017-05-08T01:12:19.927Z,1004.01
2017-05-08T01:13:00.424Z,1004.02
2017-05-08T01:13:40.937Z,1004
2017-05-08T01:14:21.432Z,1004.04
2017-05-08T01:15:01.897Z,1004
2017-05-08T01:15:42.379Z,1004.04
2017-05-08T01:16:22.840Z,1004.05
2017-05-08T01:17:03.278Z,1004.04
2017-05-08T01:17:43.724Z,1004
2017-05-08T01:18:24.156Z,1004
2017-05-08T01:19:04.621Z,1003.98
2017-05-08T01:19:45.078Z,1003.98
2017-05-08T01:20:25.562Z,1004
2017-05-08T01:21:06.039Z,1004
2017-05-08T01:21:46.498Z,1003.96
2017-05-08T01:22:26.959Z,1003.99
2017-05-08T01:23:07.394Z,1003.97
2017-05-08T01:23:47.860Z,1004.01
2017-05-08T01:24:28.311Z,1003.96
2017-05-08T01:25:08.777Z,1003.96
2017-05-08T01:25:49.209Z,1004.01
2017-05-08T01:26:30.279Z,1003.99
2017-05-08T01:27:10.718Z,1004.01
2017-05-08T01:27:51.216Z,1004
2017-05-08T01:28:31.648Z,1003.98
2017-05-08T01:29:12.149Z,1004.02
2017-05-08T01:31:09.787Z,1004.03
2017-05-08T01:31:50.270Z,1004.01
2017-05-08T01:32:30.759Z,1004.03
2017-05-08T01:33:11.225Z,1004.03
2017-05-08T01:33:51.705Z,1004.02
2017-05-08T01:34:32.192Z,1004.04
2017-05-08T01:35:12.676Z,1004.01
2017-05-08T01:35:53.164Z,1004.05
2017-05-08T01:36:33.662Z,1004.03
2017-05-08T01:37:14.156Z,1004.02
2017-05-08T01:37:54.660Z,1004.03
2017-05-08T01:38:35.144Z,1004.03
2017-05-08T01:39:15.627Z,1004.04
2017-05-08T01:39:56.130Z,1004.06
2017-05-08T01:40:36.620Z,1004.05
2017-05-08T01:41:17.106Z,1004.05
2017-05-08T01:41:57.577Z,1004.02
2017-05-08T01:42:38.070Z,1004.06
2017-05-08T01:43:18.556Z,1004.06
2017-05-08T01:43:59.041Z,1004.07
2017-05-08T01:44:39.540Z,1004.09
2017-05-08T01:45:20.031Z,1004.06
2017-05-08T01:46:00.514Z,1004.11
2017-05-08T01:46:40.991Z,1004.1
2017-05-08T01:49:08.958Z,1004.1
2017-05-08T01:49:49.434Z,1004.09
2017-05-08T01:50:29.913Z,1004.08
2017-05-08T01:51:10.416Z,1004.07
2017-05-08T01:51:50.912Z,1004.11
2017-05-08T01:52:31.395Z,1004.05
2017-05-08T01:53:11.868Z,1004.1
2017-05-08T01:53:52.372Z,1004.12
2017-05-08T01:54:32.822Z,1004.11
2017-05-08T01:55:13.302Z,1004.11
2017-05-08T01:55:53.762Z,1004.11
2017-05-08T01:56:34.235Z,1004.11
2017-05-08T01:57:14.679Z,1004.13
2017-05-08T01:57:55.187Z,1004.11
2017-05-08T01:58:35.615Z,1004.14
2017-05-08T01:59:16.052Z,1004.16
2017-05-08T01:59:56.526Z,1004.1
2017-05-08T02:00:36.989Z,1004.12
2017-05-08T02:01:17.450Z,1004.11
2017-05-08T02:01:57.933Z,1004.12
2017-05-08T02:02:38.385Z,1004.15
2017-05-08T02:03:18.839Z,1004.12
2017-05-08T02:03:59.281Z,1004.13
2017-05-08T02:04:39.742Z,1004.12
2017-05-08T02:05:20.198Z,1004.13
2017-05-08T02:06:00.682Z,1004.09
2017-05-08T02:06:41.104Z,1004.14
2017-05-08T02:07:21.652Z,1004.13
2017-05-08T02:08:02.192Z,1004.11
2017-05-08T02:08:42.668Z,1004.13
2017-05-08T02:09:23.127Z,1004.11
2017-05-08T02:10:03.571Z,1004.11
2017-05-08T02:12:16.282Z,1004.14
2017-05-08T02:12:56.732Z,1004.14
2017-05-08T02:13:37.239Z,1004.14
2017-05-08T02:14:17.721Z,1004.16
2017-05-08T02:14:58.200Z,1004.14
2017-05-08T02:15:38.693Z,1004.17
2017-05-08T02:16:19.197Z,1004.14
2017-05-08T02:16:59.693Z,1004.16
2017-05-08T02:17:40.164Z,1004.15
2017-05-08T02:18:20.650Z,1004.17
2017-05-08T02:19:01.134Z,1004.17
2017-05-08T02:19:41.612Z,1004.14
2017-05-08T02:20:22.077Z,1004.16
2017-05-08T02:21:02.522Z,1004.19
2017-05-08T02:21:42.995Z,1004.14
2017-05-08T02:22:23.452Z,1004.17
2017-05-08T02:23:03.914Z,1004.16
2017-05-08T02:23:44.375Z,1004.15
2017-05-08T02:24:25.545Z,1004.17
2017-05-08T02:25:05.999Z,1004.12
2017-05-08T02:25:46.425Z,1004.15
2017-05-08T02:26:26.895Z,1004.14
2017-05-08T02:27:07.363Z,1004.13
2017-05-08T02:27:47.825Z,1004.14
2017-05-08T02:28:28.373Z,1004.19
2017-05-08T02:29:08.839Z,1004.18
2017-05-08T02:29:50.215Z,1004.17
2017-05-08T02:30:30.644Z,1004.2
2017-05-08T02:31:11.077Z,1004.16
2017-05-08T02:31:51.565Z,1004.17
2017-05-08T02:32:32.008Z,1004.16
2017-05-08T02:33:12.478Z,1004.16
2017-05-08T02:33:52.967Z,1004.16
2017-05-08T02:34:33.422Z,1004.15
2017-05-08T02:35:13.853Z,1004.19
2017-05-08T02:35:54.300Z,1004.19
2017-05-08T02:36:34.741Z,1004.18
2017-05-08T02:37:15.208Z,1004.16
2017-05-08T02:37:55.635Z,1004.17
2017-05-08T02:38:36.115Z,1004.16
2017-05-08T02:39:16.571Z,1004.22
2017-05-08T02:39:57.035Z,1004.19
2017-05-08T02:40:37.488Z,1004.18
2017-05-08T02:41:17.943Z,1004.23
2017-05-08T02:41:58.405Z,1004.19
2017-05-08T02:42:38.858Z,1004.18
2017-05-08T02:43:19.317Z,1004.23
2017-05-08T02:43:59.756Z,1004.23
2017-05-08T02:44:40.193Z,1004.21
2017-05-08T02:45:20.673Z,1004.2
2017-05-08T02:46:01.110Z,1004.2
2017-05-08T02:46:41.556Z,1004.2
2017-05-08T02:47:22.027Z,1004.2
2017-05-08T02:48:02.482Z,1004.21
2017-05-08T02:48:42.935Z,1004.24
2017-05-08T02:49:23.376Z,1004.23
2017-05-08T02:50:03.825Z,1004.21
2017-05-08T02:50:44.839Z,1004.25
2017-05-08T02:51:25.305Z,1004.23
2017-05-08T02:53:53.311Z,1004.22
2017-05-08T02:54:33.764Z,1004.24
2017-05-08T02:55:14.205Z,1004.22
2017-05-08T02:55:54.648Z,1004.25
2017-05-08T02:56:35.094Z,1004.22
2017-05-08T02:57:15.528Z,1004.25
2017-05-08T02:57:55.984Z,1004.29
2017-05-08T02:58:36.415Z,1004.26
2017-05-08T02:59:16.873Z,1004.3
2017-05-08T02:59:57.325Z,1004.28
2017-05-08T03:00:37.781Z,1004.31
2017-05-08T03:01:18.244Z,1004.3
2017-05-08T03:01:58.688Z,1004.29
2017-05-08T03:02:39.172Z,1004.32
2017-05-08T03:03:19.651Z,1004.28
2017-05-08T03:04:00.153Z,1004.3
2017-05-08T03:04:40.640Z,1004.31
2017-05-08T03:05:21.142Z,1004.3
2017-05-08T03:06:01.635Z,1004.33
2017-05-08T03:06:42.095Z,1004.28
2017-05-08T03:07:22.518Z,1004.32
2017-05-08T03:08:02.967Z,1004.34
2017-05-08T03:08:43.439Z,1004.34
2017-05-08T03:09:23.877Z,1004.33
2017-05-08T03:10:04.303Z,1004.33
2017-05-08T03:10:44.736Z,1004.33
2017-05-08T03:11:25.180Z,1004.3
2017-05-08T03:12:05.619Z,1004.31
2017-05-08T03:12:46.073Z,1004.32
2017-05-08T03:13:26.485Z,1004.32
2017-05-08T03:14:06.930Z,1004.33
2017-05-08T03:14:47.392Z,1004.31
2017-05-08T03:15:27.843Z,1004.33
2017-05-08T03:16:08.301Z,1004.32
2017-05-08T03:16:48.734Z,1004.32
2017-05-08T03:17:29.213Z,1004.33
2017-05-08T03:18:09.679Z,1004.34
2017-05-08T03:18:50.103Z,1004.34
2017-05-08T03:19:30.555Z,1004.3
2017-05-08T03:20:10.969Z,1004.35
2017-05-08T03:20:51.426Z,1004.34
2017-05-08T03:21:31.868Z,1004.31
2017-05-08T03:22:12.326Z,1004.31
2017-05-08T03:22:52.770Z,1004.31
2017-05-08T03:23:33.208Z,1004.32
2017-05-08T03:24:13.695Z,1004.3
2017-05-08T03:24:54.149Z,1004.33
2017-05-08T03:25:34.588Z,1004.31
2017-05-08T03:26:15.069Z,1004.31
2017-05-08T03:26:55.533Z,1004.34
2017-05-08T03:27:35.961Z,1004.37
2017-05-08T03:28:17.294Z,1004.31
2017-05-08T03:28:57.730Z,1004.34
2017-05-08T03:29:38.209Z,1004.36
2017-05-08T03:30:18.642Z,1004.37
2017-05-08T03:30:59.072Z,1004.35
2017-05-08T03:31:39.536Z,1004.37
2017-05-08T03:32:19.965Z,1004.38
2017-05-08T03:33:00.390Z,1004.38
2017-05-08T03:33:40.799Z,1004.37
2017-05-08T03:34:21.237Z,1004.38
2017-05-08T03:35:01.702Z,1004.38
2017-05-08T03:37:29.618Z,1004.37
2017-05-08T03:38:10.108Z,1004.37
2017-05-08T03:38:50.559Z,1004.36
2017-05-08T03:39:31.044Z,1004.4
2017-05-08T03:40:11.531Z,1004.4
2017-05-08T03:40:52.006Z,1004.38
2017-05-08T03:41:32.498Z,1004.39
2017-05-08T03:42:12.983Z,1004.42
2017-05-08T03:42:53.459Z,1004.4
2017-05-08T03:43:33.947Z,1004.37
2017-05-08T03:44:14.423Z,1004.4
2017-05-08T03:44:54.842Z,1004.38
2017-05-08T03:45:35.273Z,1004.4
2017-05-08T03:46:15.712Z,1004.39
2017-05-08T03:46:56.157Z,1004.38
2017-05-08T03:47:36.614Z,1004.4
2017-05-08T03:48:17.070Z,1004.41
2017-05-08T03:48:57.540Z,1004.4
2017-05-08T03:49:37.955Z,1004.38
2017-05-08T03:50:18.415Z,1004.4
2017-05-08T03:50:58.867Z,1004.44
2017-05-08T03:51:39.326Z,1004.42
2017-05-08T03:52:19.739Z,1004.41
2017-05-08T03:53:01.035Z,1004.47
2017-05-08T03:53:41.517Z,1004.43
2017-05-08T03:54:21.944Z,1004.48
2017-05-08T03:55:02.383Z,1004.49
2017-05-08T03:55:42.831Z,1004.48
2017-05-08T03:56:23.350Z,1004.46
2017-05-08T03:57:03.854Z,1004.48
2017-05-08T03:57:44.298Z,1004.49
2017-05-08T03:58:24.768Z,1004.5
2017-05-08T03:59:05.217Z,1004.45
2017-05-08T03:59:45.647Z,1004.49
2017-05-08T04:00:26.050Z,1004.47
2017-05-08T04:01:06.523Z,1004.48
2017-05-08T04:01:46.965Z,1004.46
2017-05-08T04:03:59.724Z,1004.52
2017-05-08T04:04:40.248Z,1004.5
2017-05-08T04:05:20.707Z,1004.48
2017-05-08T04:07:38.535Z,1004.49
2017-05-08T04:08:19.042Z,1004.53
2017-05-08T04:08:59.525Z,1004.51
2017-05-08T04:09:40.008Z,1004.52
2017-05-08T04:10:20.504Z,1004.54
2017-05-08T04:11:00.980Z,1004.54
2017-05-08T04:11:41.460Z,1004.56
2017-05-08T04:12:21.935Z,1004.59
2017-05-08T04:13:02.438Z,1004.59
2017-05-08T04:13:42.910Z,1004.57
2017-05-08T04:14:23.396Z,1004.58
2017-05-08T04:15:03.912Z,1004.58
2017-05-08T04:15:44.396Z,1004.59
2017-05-08T04:16:24.898Z,1004.58
2017-05-08T04:17:05.368Z,1004.61
2017-05-08T04:17:45.868Z,1004.59
2017-05-08T04:18:26.330Z,1004.63
2017-05-08T04:19:07.320Z,1004.65
2017-05-08T04:19:47.746Z,1004.63
2017-05-08T04:20:28.985Z,1004.63
2017-05-08T04:21:09.431Z,1004.61
2017-05-08T04:21:49.859Z,1004.65
2017-05-08T04:22:30.297Z,1004.64
2017-05-08T04:23:10.755Z,1004.65
2017-05-08T04:23:51.171Z,1004.66
2017-05-08T04:24:31.628Z,1004.69
2017-05-08T04:25:12.083Z,1004.68
2017-05-08T04:25:52.534Z,1004.69
2017-05-08T04:26:32.962Z,1004.66
2017-05-08T04:27:13.408Z,1004.7
2017-05-08T04:27:53.864Z,1004.71
2017-05-08T04:28:34.353Z,1004.74
2017-05-08T04:29:14.830Z,1004.73
2017-05-08T04:29:55.275Z,1004.73
2017-05-08T04:30:35.729Z,1004.72
2017-05-08T04:31:16.166Z,1004.78
2017-05-08T04:31:56.622Z,1004.75
2017-05-08T04:32:37.071Z,1004.74
2017-05-08T04:33:17.538Z,1004.77
2017-05-08T04:33:57.980Z,1004.74
2017-05-08T04:34:38.589Z,1004.72
2017-05-08T04:35:19.348Z,1004.79
2017-05-08T04:35:59.802Z,1004.76
2017-05-08T04:36:40.218Z,1004.78
2017-05-08T04:37:20.631Z,1004.77
2017-05-08T04:38:01.077Z,1004.76
2017-05-08T04:38:41.512Z,1004.83
2017-05-08T04:39:21.992Z,1004.81
2017-05-08T04:40:02.418Z,1004.79
2017-05-08T04:40:42.861Z,1004.79
2017-05-08T04:41:23.314Z,1004.8
2017-05-08T04:42:03.747Z,1004.82
2017-05-08T04:42:44.241Z,1004.85
2017-05-08T04:43:24.761Z,1004.85
2017-05-08T04:44:05.194Z,1004.87
2017-05-08T04:44:45.633Z,1004.84
2017-05-08T04:45:26.116Z,1004.86
2017-05-08T04:46:06.556Z,1004.85
2017-05-08T04:46:47.023Z,1004.88
2017-05-08T04:47:27.484Z,1004.93
2017-05-08T04:48:07.936Z,1004.91
2017-05-08T04:48:48.370Z,1004.91
2017-05-08T04:49:28.817Z,1004.94
2017-05-08T04:50:09.393Z,1004.91
2017-05-08T04:50:49.817Z,1004.9
2017-05-08T04:51:30.290Z,1004.94
2017-05-08T04:52:10.752Z,1004.93
2017-05-08T04:52:51.201Z,1004.93
2017-05-08T04:54:43.769Z,1004.92
2017-05-08T04:55:24.243Z,1004.95
2017-05-08T04:56:04.748Z,1004.91
2017-05-08T04:56:45.247Z,1004.94
2017-05-08T04:57:25.712Z,1004.92
2017-05-08T04:58:06.188Z,1004.91
2017-05-08T04:58:46.785Z,1004.93
2017-05-08T04:59:27.281Z,1004.94
2017-05-08T05:00:07.768Z,1004.92
2017-05-08T05:00:48.246Z,1004.93
2017-05-08T05:01:29.355Z,1004.92
2017-05-08T05:02:09.886Z,1004.92
2017-05-08T05:02:50.267Z,1004.92
2017-05-08T05:03:30.755Z,1004.95
2017-05-08T05:04:11.222Z,1004.94
2017-05-08T05:04:51.701Z,1004.93
2017-05-08T05:05:32.118Z,1004.93
2017-05-08T05:06:12.582Z,1004.94
2017-05-08T05:06:53.003Z,1004.96
2017-05-08T05:07:33.437Z,1004.93
2017-05-08T05:08:13.883Z,1004.97
2017-05-08T05:08:54.317Z,1004.98
2017-05-08T05:09:34.771Z,1004.96
2017-05-08T05:10:15.229Z,1004.96
2017-05-08T05:12:07.765Z,1004.97
2017-05-08T05:12:48.237Z,1004.99
2017-05-08T05:13:28.737Z,1004.96
2017-05-08T05:14:09.214Z,1005
2017-05-08T05:14:49.757Z,1004.97
2017-05-08T05:15:30.210Z,1004.97
2017-05-08T05:16:10.717Z,1005.01
2017-05-08T05:16:51.196Z,1004.96
2017-05-08T05:17:31.663Z,1004.98
2017-05-08T05:18:12.136Z,1004.94
2017-05-08T05:18:53.563Z,1004.94
2017-05-08T05:19:34.077Z,1004.99
2017-05-08T05:20:14.548Z,1004.97
2017-05-08T05:20:55.029Z,1005.01
2017-05-08T05:21:35.515Z,1004.96
2017-05-08T05:22:16.021Z,1004.97
2017-05-08T05:22:56.481Z,1004.97
2017-05-08T05:23:36.931Z,1004.96
2017-05-08T05:24:17.379Z,1004.99
2017-05-08T05:24:57.855Z,1005.02
2017-05-08T05:25:38.315Z,1004.99
2017-05-08T05:26:18.858Z,1004.96
2017-05-08T05:26:59.321Z,1004.99
2017-05-08T05:27:39.779Z,1005.01
2017-05-08T05:28:20.240Z,1004.99
2017-05-08T05:29:00.706Z,1004.98
2017-05-08T05:29:41.179Z,1005
2017-05-08T05:30:21.625Z,1005.01
2017-05-08T05:31:02.064Z,1004.98
2017-05-08T05:31:42.506Z,1004.99
2017-05-08T05:32:22.949Z,1005.03
2017-05-08T05:33:03.379Z,1005.03
2017-05-08T05:33:43.798Z,1005.03
2017-05-08T05:34:24.795Z,1005.04
2017-05-08T05:35:05.261Z,1005.08
2017-05-08T05:35:45.691Z,1005.07
2017-05-08T05:36:26.973Z,1005.08
2017-05-08T05:37:07.419Z,1005.08
2017-05-08T05:37:47.870Z,1005.05
2017-05-08T05:38:28.333Z,1005.09
2017-05-08T05:39:08.788Z,1005.06
2017-05-08T05:39:49.240Z,1005.08
2017-05-08T05:40:29.716Z,1005.06
2017-05-08T05:41:11.138Z,1005.06
2017-05-08T05:41:51.604Z,1005.04
2017-05-08T05:42:32.049Z,1005.08
2017-05-08T05:43:12.537Z,1005.09
2017-05-08T05:43:52.990Z,1005.1
2017-05-08T05:44:33.423Z,1005.09
2017-05-08T05:45:13.858Z,1005.09
2017-05-08T05:45:55.084Z,1005.08
2017-05-08T05:46:35.512Z,1005.11
2017-05-08T05:47:15.975Z,1005.11
2017-05-08T05:47:56.417Z,1005.15
2017-05-08T05:48:36.859Z,1005.13
2017-05-08T05:49:17.299Z,1005.14
2017-05-08T05:49:57.748Z,1005.16
2017-05-08T05:50:38.212Z,1005.15
2017-05-08T05:51:18.669Z,1005.14
2017-05-08T05:51:59.078Z,1005.15
2017-05-08T05:52:39.515Z,1005.14
2017-05-08T05:53:19.989Z,1005.16
2017-05-08T05:54:00.474Z,1005.17
2017-05-08T05:54:40.925Z,1005.15
2017-05-08T05:55:21.365Z,1005.15
2017-05-08T05:56:01.772Z,1005.19
2017-05-08T05:56:42.248Z,1005.17
2017-05-08T05:57:22.702Z,1005.17
2017-05-08T05:58:03.161Z,1005.19
2017-05-08T05:58:43.624Z,1005.19
2017-05-08T05:59:24.096Z,1005.21
2017-05-08T06:00:04.549Z,1005.22
2017-05-08T06:00:45.593Z,1005.22
2017-05-08T06:01:25.997Z,1005.27
2017-05-08T06:02:06.438Z,1005.22
2017-05-08T06:02:46.940Z,1005.24
2017-05-08T06:03:27.459Z,1005.23
2017-05-08T06:04:07.901Z,1005.21
2017-05-08T06:04:48.340Z,1005.24
2017-05-08T06:05:28.804Z,1005.22
2017-05-08T06:06:09.261Z,1005.24
2017-05-08T06:06:49.729Z,1005.26
2017-05-08T06:07:30.191Z,1005.25
2017-05-08T06:08:10.655Z,1005.29
2017-05-08T06:10:08.325Z,1005.29
2017-05-08T06:10:48.805Z,1005.29
2017-05-08T06:11:29.359Z,1005.3
2017-05-08T06:12:09.844Z,1005.26
2017-05-08T06:12:50.334Z,1005.27
2017-05-08T06:13:30.842Z,1005.32
2017-05-08T06:14:11.314Z,1005.28
2017-05-08T06:14:51.777Z,1005.28
2017-05-08T06:15:32.239Z,1005.29
2017-05-08T06:16:12.688Z,1005.3
2017-05-08T06:16:53.174Z,1005.29
2017-05-08T06:17:33.646Z,1005.26
2017-05-08T06:18:14.123Z,1005.29
2017-05-08T06:18:54.574Z,1005.28
2017-05-08T06:19:35.042Z,1005.29
2017-05-08T06:20:15.471Z,1005.3
2017-05-08T06:20:55.906Z,1005.31
2017-05-08T06:21:36.357Z,1005.34
2017-05-08T06:22:16.821Z,1005.32
2017-05-08T06:22:57.273Z,1005.33
2017-05-08T06:23:37.706Z,1005.33
2017-05-08T06:25:30.257Z,1005.34
2017-05-08T06:26:10.726Z,1005.36
2017-05-08T06:26:51.168Z,1005.38
2017-05-08T06:27:31.655Z,1005.39
2017-05-08T06:28:12.135Z,1005.41
2017-05-08T06:28:52.596Z,1005.4
2017-05-08T06:29:33.119Z,1005.41
2017-05-08T06:30:13.767Z,1005.39
2017-05-08T06:30:55.475Z,1005.38
2017-05-08T06:31:36.455Z,1005.4
2017-05-08T06:32:17.056Z,1005.42
2017-05-08T06:32:57.690Z,1005.44
2017-05-08T06:34:56.959Z,1005.4
2017-05-08T06:35:37.475Z,1005.45
2017-05-08T06:36:18.338Z,1005.4
2017-05-08T06:36:58.995Z,1005.4
2017-05-08T06:37:39.606Z,1005.46
2017-05-08T06:38:20.034Z,1005.46
2017-05-08T06:39:00.495Z,1005.49
2017-05-08T06:39:40.959Z,1005.45
2017-05-08T06:40:21.433Z,1005.43
2017-05-08T06:41:01.889Z,1005.42
2017-05-08T06:41:42.347Z,1005.47
2017-05-08T06:42:22.832Z,1005.49
2017-05-08T06:43:04.211Z,1005.48
2017-05-08T06:44:56.796Z,1005.46
2017-05-08T06:45:37.302Z,1005.44
2017-05-08T06:46:17.797Z,1005.47
2017-05-08T06:46:58.269Z,1005.48
2017-05-08T06:47:38.736Z,1005.49
2017-05-08T06:48:19.199Z,1005.48
2017-05-08T06:48:59.636Z,1005.52
2017-05-08T06:49:40.087Z,1005.47
2017-05-08T06:50:20.489Z,1005.49
2017-05-08T06:51:00.940Z,1005.51
2017-05-08T06:51:41.400Z,1005.48
2017-05-08T06:52:21.922Z,1005.49
2017-05-08T06:53:02.499Z,1005.48
2017-05-08T06:53:42.953Z,1005.46
2017-05-08T06:54:23.399Z,1005.51
2017-05-08T06:55:03.828Z,1005.51
2017-05-08T06:55:44.262Z,1005.53
2017-05-08T06:56:24.716Z,1005.51
2017-05-08T06:57:05.144Z,1005.56
2017-05-08T06:57:45.584Z,1005.55
2017-05-08T06:58:26.054Z,1005.54
2017-05-08T06:59:07.215Z,1005.52
2017-05-08T06:59:47.687Z,1005.51
2017-05-08T07:00:28.250Z,1005.51
2017-05-08T07:01:08.871Z,1005.52
2017-05-08T07:01:49.291Z,1005.56
2017-05-08T07:02:29.816Z,1005.57
2017-05-08T07:03:10.294Z,1005.57
2017-05-08T07:03:50.727Z,1005.5
2017-05-08T07:04:31.235Z,1005.53
2017-05-08T07:05:11.688Z,1005.54
2017-05-08T07:05:52.374Z,1005.6
2017-05-08T07:06:32.821Z,1005.57
2017-05-08T07:07:13.432Z,1005.54
2017-05-08T07:07:54.013Z,1005.56
2017-05-08T07:08:34.442Z,1005.6
2017-05-08T07:09:14.913Z,1005.56
2017-05-08T07:09:55.391Z,1005.6
2017-05-08T07:10:35.850Z,1005.57
2017-05-08T07:11:16.401Z,1005.56
2017-05-08T07:11:56.859Z,1005.6
2017-05-08T07:12:37.304Z,1005.64
2017-05-08T07:13:17.778Z,1005.65
2017-05-08T07:13:58.246Z,1005.68
2017-05-08T07:14:38.836Z,1005.7
2017-05-08T07:16:51.865Z,1005.71
2017-05-08T07:17:32.407Z,1005.7
2017-05-08T07:18:12.880Z,1005.72
2017-05-08T07:18:53.327Z,1005.71
2017-05-08T07:21:06.034Z,1005.75
2017-05-08T07:21:46.508Z,1005.73
2017-05-08T07:22:26.964Z,1005.79
2017-05-08T07:23:07.486Z,1005.77
2017-05-08T07:23:47.921Z,1005.77
2017-05-08T07:26:01.576Z,1005.75
2017-05-08T07:27:59.130Z,1005.78
2017-05-08T07:28:39.593Z,1005.77
2017-05-08T07:29:20.080Z,1005.78
2017-05-08T07:30:00.553Z,1005.81
2017-05-08T07:32:18.496Z,1005.81
2017-05-08T07:32:58.878Z,1005.83
2017-05-08T07:33:39.402Z,1005.81
2017-05-08T07:34:19.834Z,1005.8
2017-05-08T07:35:00.309Z,1005.84
2017-05-08T07:35:40.805Z,1005.8
2017-05-08T07:36:21.264Z,1005.86
2017-05-08T07:37:01.815Z,1005.83
2017-05-08T07:37:42.256Z,1005.85
2017-05-08T07:38:22.752Z,1005.83
2017-05-08T07:39:03.183Z,1005.88
2017-05-08T07:39:43.640Z,1005.87
2017-05-08T07:40:24.079Z,1005.82
2017-05-08T07:41:04.571Z,1005.87
2017-05-08T07:41:44.923Z,1005.9
2017-05-08T07:42:25.438Z,1005.93
2017-05-08T07:43:05.830Z,1005.9
2017-05-08T07:43:46.282Z,1005.91
2017-05-08T07:46:14.897Z,1005.9
2017-05-08T07:46:55.859Z,1005.94
2017-05-08T07:48:54.118Z,1005.94
2017-05-08T07:49:36.015Z,1005.94
2017-05-08T07:50:16.453Z,1005.95
2017-05-08T07:50:56.964Z,1005.96
2017-05-08T07:51:37.440Z,1005.96
2017-05-08T07:53:55.316Z,1006.01
2017-05-08T07:54:35.845Z,1006.02
2017-05-08T07:55:16.349Z,1006.01
2017-05-08T07:55:56.916Z,1006.02
2017-05-08T07:56:37.466Z,1006.05
2017-05-08T07:58:55.633Z,1006.06
2017-05-08T07:59:36.092Z,1006.06
2017-05-08T08:00:16.825Z,1006.07
2017-05-08T08:00:57.314Z,1006.07
2017-05-08T08:02:49.972Z,1006.05
2017-05-08T08:03:30.798Z,1006.1
2017-05-08T08:04:11.238Z,1006.09
2017-05-08T08:06:09.119Z,1006.17
2017-05-08T08:06:49.464Z,1006.14
2017-05-08T08:07:29.922Z,1006.14
2017-05-08T08:08:10.469Z,1006.12
2017-05-08T08:08:50.983Z,1006.13
2017-05-08T08:09:31.770Z,1006.17
2017-05-08T08:10:12.269Z,1006.16
2017-05-08T08:10:52.831Z,1006.14
2017-05-08T08:11:33.368Z,1006.12
2017-05-08T08:12:15.143Z,1006.15
2017-05-08T08:12:55.710Z,1006.15
2017-05-08T08:13:36.364Z,1006.22
2017-05-08T08:14:17.175Z,1006.23
2017-05-08T08:14:57.785Z,1006.2
2017-05-08T08:15:38.341Z,1006.2
2017-05-08T08:16:18.830Z,1006.18
2017-05-08T08:16:59.289Z,1006.2
2017-05-08T08:17:40.026Z,1006.23
2017-05-08T08:18:20.602Z,1006.25
2017-05-08T08:19:01.298Z,1006.21
2017-05-08T08:19:41.868Z,1006.2
2017-05-08T08:20:22.427Z,1006.25
2017-05-08T08:21:03.012Z,1006.25
2017-05-08T08:21:43.594Z,1006.26
2017-05-08T08:22:24.197Z,1006.24
2017-05-08T08:23:04.737Z,1006.25
2017-05-08T08:23:45.201Z,1006.23
2017-05-08T08:24:25.655Z,1006.27
2017-05-08T08:25:06.191Z,1006.27
2017-05-08T08:25:46.688Z,1006.34
2017-05-08T08:27:59.408Z,1006.3
2017-05-08T08:28:40.089Z,1006.28
2017-05-08T08:29:20.669Z,1006.38
2017-05-08T08:30:01.220Z,1006.34
2017-05-08T08:30:41.790Z,1006.33
2017-05-08T08:31:22.450Z,1006.37
2017-05-08T08:32:03.015Z,1006.37
2017-05-08T08:32:43.546Z,1006.38
2017-05-08T08:33:24.026Z,1006.37
2017-05-08T08:34:04.774Z,1006.36
2017-05-08T08:34:45.497Z,1006.42
2017-05-08T08:37:13.239Z,1006.44
2017-05-08T08:37:53.680Z,1006.45
2017-05-08T08:38:34.141Z,1006.48
2017-05-08T08:39:14.637Z,1006.49
2017-05-08T08:39:55.536Z,1006.49
2017-05-08T08:40:36.122Z,1006.48
2017-05-08T08:41:16.591Z,1006.48
2017-05-08T08:41:57.293Z,1006.52
2017-05-08T08:42:37.759Z,1006.47
2017-05-08T08:43:18.202Z,1006.48
2017-05-08T08:43:58.640Z,1006.5
2017-05-08T08:45:51.511Z,1006.51
2017-05-08T08:46:31.992Z,1006.56
2017-05-08T08:47:12.511Z,1006.49
2017-05-08T08:47:53.033Z,1006.5
2017-05-08T08:48:33.579Z,1006.54
2017-05-08T08:49:13.988Z,1006.53
2017-05-08T08:49:54.635Z,1006.58
2017-05-08T08:50:35.147Z,1006.59
2017-05-08T08:51:15.669Z,1006.56
2017-05-08T08:51:56.163Z,1006.61
2017-05-08T08:52:36.693Z,1006.64
2017-05-08T08:53:17.285Z,1006.58
2017-05-08T08:53:57.913Z,1006.63
2017-05-08T08:54:38.405Z,1006.58
2017-05-08T08:55:19.063Z,1006.64
2017-05-08T08:55:59.590Z,1006.6
2017-05-08T08:56:40.172Z,1006.62
2017-05-08T08:57:20.647Z,1006.62
2017-05-08T08:58:01.095Z,1006.64
2017-05-08T08:59:58.752Z,1006.67
2017-05-08T09:00:39.306Z,1006.65